Aeroporto :
LOGIN :

Iscrizione | Disclaimer

   EN    FR    IT 

 










Sommario :    VFR   VFR Marginale   IFR   IFR Intensivo   IFR Molto Intensivo
Visibilità : 
Base nubi : 
>= 8 km
>= 3000ft
5 / 8 km
1000 / 3000 ft
1500m / 5 km
500 / 1000 ft
800 / 1500m
200 / 500 ft
< 800m
< 200 ft
Simboli :   Temporali  Nebbia  Neve Forte  Precipitazioni Forti  Vento > 20 kt
SIGMETs :   Varie  Temporali  Ghiacco  Turbolenza  Onda orograficha  Ceneri Vulcaniche






- Altitudine del aeroporto : 59 ft
- Codice IATA : TSF


LIPH - Treviso

ULTIMO METAR :
  • 240520Z AUTO VRB02KT 1400 R07/P1500N BR BKN026/// 06/06 Q1019

METARs OBSOLETI :
  • 240450Z AUTO 02002KT 1000 R07/1400U BCFG BKN026/// 06/05 Q1019
  • 240420Z AUTO 01002KT 1700 BR BKN027/// 07/06 Q1019
  • 240350Z AUTO 03003KT 1900 BR OVC027/// 07/06 Q1019
  • 240320Z AUTO 03003KT 330V070 1400 R07/P1500N BR BKN027/// 06/06 Q1019
  • 240250Z AUTO 02004KT 350V060 1500 BR FEW029/// 06/06 Q1019

TAF TAF LIPH
Valido dal 24 a 06 ore il 25 a 06 ore UTC


240500Z 2406/2506 VRB04KT 3000 BR NSC
TEMPO 2406/2409 1200 BCFG BKN002
BECMG 2410/2412 6000
BECMG 2418/2420 2000 BR
TEMPO 2422/2506 0800 FG



MetMap, La meteo Aeronautica in un colpo d'occhio ! - Copyright ORBIFLY Dicembre 2007 - Disclaimer

ORBIFLY MET'MAP TEAM :

Programmazione e sviluppo : Alexandra Zaïnal
Concezione : Baudouin d'Aumeries
Aiuto per la programmazione : Marc-Olivier Méhu
Supporto tecnico e logistico : Manuel Goepfert
Aiuto per la traduzione : Arnaldo La Scala

Contatto : metmap@orbifly.com




FONTI E CREDITI :

   NOAA